sensor_id;sensor_type;location;lat;lon;timestamp;P1;durP1;ratioP1;P2;durP2;ratioP2
47481;SDS011;33219;47.410;9.730;2022-10-18T00:00:53;7.12;;;3.40;;
47481;SDS011;33219;47.410;9.730;2022-10-18T00:03:21;7.05;;;3.30;;
47481;SDS011;33219;47.410;9.730;2022-10-18T00:05:49;5.62;;;3.70;;
47481;SDS011;33219;47.410;9.730;2022-10-18T00:08:17;9.55;;;3.77;;
47481;SDS011;33219;47.410;9.730;2022-10-18T00:10:46;7.78;;;3.80;;
47481;SDS011;33219;47.410;9.730;2022-10-18T00:13:13;8.55;;;4.45;;
47481;SDS011;33219;47.410;9.730;2022-10-18T00:15:51;6.97;;;4.28;;
47481;SDS011;33219;47.410;9.730;2022-10-18T00:18:20;6.70;;;3.90;;
47481;SDS011;33219;47.410;9.730;2022-10-18T00:23:28;8.33;;;4.28;;
47481;SDS011;33219;47.410;9.730;2022-10-18T00:26:00;8.75;;;4.28;;
47481;SDS011;33219;47.410;9.730;2022-10-18T00:28:36;7.47;;;3.67;;
47481;SDS011;33219;47.410;9.730;2022-10-18T00:31:08;6.10;;;3.30;;
47481;SDS011;33219;47.410;9.730;2022-10-18T00:33:43;7.67;;;3.52;;
47481;SDS011;33219;47.410;9.730;2022-10-18T00:36:12;9.68;;;3.77;;
47481;SDS011;33219;47.410;9.730;2022-10-18T00:38:40;8.30;;;3.30;;
47481;SDS011;33219;47.410;9.730;2022-10-18T00:41:10;8.48;;;3.58;;
47481;SDS011;33219;47.410;9.730;2022-10-18T00:43:56;7.17;;;3.42;;
47481;SDS011;33219;47.410;9.730;2022-10-18T00:46:28;5.70;;;3.22;;
47481;SDS011;33219;47.410;9.730;2022-10-18T00:48:58;8.73;;;3.90;;
47481;SDS011;33219;47.410;9.730;2022-10-18T00:51:39;7.50;;;3.58;;
47481;SDS011;33219;47.410;9.730;2022-10-18T00:54:11;7.50;;;3.37;;
47481;SDS011;33219;47.410;9.730;2022-10-18T00:56:40;5.67;;;3.50;;
47481;SDS011;33219;47.410;9.730;2022-10-18T00:59:09;5.95;;;3.10;;
47481;SDS011;33219;47.410;9.730;2022-10-18T01:01:40;7.53;;;3.80;;
47481;SDS011;33219;47.410;9.730;2022-10-18T01:04:07;6.08;;;3.83;;
47481;SDS011;33219;47.410;9.730;2022-10-18T01:09:32;6.65;;;3.50;;
47481;SDS011;33219;47.410;9.730;2022-10-18T01:12:13;11.28;;;3.47;;
47481;SDS011;33219;47.410;9.730;2022-10-18T01:17:10;5.40;;;3.42;;
47481;SDS011;33219;47.410;9.730;2022-10-18T01:27:57;7.03;;;4.00;;
47481;SDS011;33219;47.410;9.730;2022-10-18T01:30:31;6.80;;;3.95;;
47481;SDS011;33219;47.410;9.730;2022-10-18T01:33:27;7.12;;;4.00;;
47481;SDS011;33219;47.410;9.730;2022-10-18T01:35:58;8.93;;;4.15;;
47481;SDS011;33219;47.410;9.730;2022-10-18T01:38:38;6.58;;;3.65;;
47481;SDS011;33219;47.410;9.730;2022-10-18T01:41:08;8.43;;;4.00;;
47481;SDS011;33219;47.410;9.730;2022-10-18T01:43:37;7.60;;;4.30;;
47481;SDS011;33219;47.410;9.730;2022-10-18T01:46:06;8.05;;;3.80;;
47481;SDS011;33219;47.410;9.730;2022-10-18T01:48:36;7.30;;;3.83;;
47481;SDS011;33219;47.410;9.730;2022-10-18T01:51:04;6.85;;;3.62;;
47481;SDS011;33219;47.410;9.730;2022-10-18T01:53:32;7.25;;;4.08;;
47481;SDS011;33219;47.410;9.730;2022-10-18T01:56:10;5.85;;;4.05;;
47481;SDS011;33219;47.410;9.730;2022-10-18T01:59:05;5.67;;;4.08;;
47481;SDS011;33219;47.410;9.730;2022-10-18T02:01:40;6.65;;;3.30;;
47481;SDS011;33219;47.410;9.730;2022-10-18T02:04:18;7.97;;;3.75;;
47481;SDS011;33219;47.410;9.730;2022-10-18T02:06:44;9.18;;;4.20;;
47481;SDS011;33219;47.410;9.730;2022-10-18T02:09:18;6.08;;;3.60;;
47481;SDS011;33219;47.410;9.730;2022-10-18T02:11:48;8.18;;;2.85;;
47481;SDS011;33219;47.410;9.730;2022-10-18T02:14:19;9.18;;;2.80;;
47481;SDS011;33219;47.410;9.730;2022-10-18T02:16:49;8.25;;;2.95;;
47481;SDS011;33219;47.410;9.730;2022-10-18T02:21:50;6.30;;;2.80;;
47481;SDS011;33219;47.410;9.730;2022-10-18T02:24:19;5.00;;;2.58;;
47481;SDS011;33219;47.410;9.730;2022-10-18T02:26:49;5.25;;;2.75;;
47481;SDS011;33219;47.410;9.730;2022-10-18T02:29:17;6.03;;;2.80;;
47481;SDS011;33219;47.410;9.730;2022-10-18T02:31:45;7.67;;;2.80;;
47481;SDS011;33219;47.410;9.730;2022-10-18T02:34:26;5.30;;;2.60;;
47481;SDS011;33219;47.410;9.730;2022-10-18T02:36:51;5.08;;;2.45;;
47481;SDS011;33219;47.410;9.730;2022-10-18T02:39:22;5.92;;;2.92;;
47481;SDS011;33219;47.410;9.730;2022-10-18T02:41:52;6.35;;;3.58;;
47481;SDS011;33219;47.410;9.730;2022-10-18T02:44:20;8.08;;;3.87;;
47481;SDS011;33219;47.410;9.730;2022-10-18T02:46:48;8.18;;;3.95;;
47481;SDS011;33219;47.410;9.730;2022-10-18T02:49:16;10.35;;;5.30;;
47481;SDS011;33219;47.410;9.730;2022-10-18T02:51:44;8.78;;;5.03;;
47481;SDS011;33219;47.410;9.730;2022-10-18T02:54:11;10.63;;;5.35;;
47481;SDS011;33219;47.410;9.730;2022-10-18T02:56:39;10.40;;;5.87;;
47481;SDS011;33219;47.410;9.730;2022-10-18T02:59:06;8.60;;;5.28;;
47481;SDS011;33219;47.410;9.730;2022-10-18T03:01:34;9.73;;;5.70;;
47481;SDS011;33219;47.410;9.730;2022-10-18T03:04:02;9.38;;;6.20;;
47481;SDS011;33219;47.410;9.730;2022-10-18T03:06:30;12.20;;;6.17;;
47481;SDS011;33219;47.410;9.730;2022-10-18T03:09:00;7.75;;;5.80;;
47481;SDS011;33219;47.410;9.730;2022-10-18T03:11:29;12.15;;;5.97;;
47481;SDS011;33219;47.410;9.730;2022-10-18T03:13:57;9.30;;;5.62;;
47481;SDS011;33219;47.410;9.730;2022-10-18T03:16:24;14.10;;;6.30;;
47481;SDS011;33219;47.410;9.730;2022-10-18T03:18:52;9.90;;;6.40;;
47481;SDS011;33219;47.410;9.730;2022-10-18T03:21:19;10.13;;;6.62;;
47481;SDS011;33219;47.410;9.730;2022-10-18T03:23:47;10.18;;;6.60;;
47481;SDS011;33219;47.410;9.730;2022-10-18T03:26:15;10.15;;;6.35;;
47481;SDS011;33219;47.410;9.730;2022-10-18T03:28:45;11.65;;;6.90;;
47481;SDS011;33219;47.410;9.730;2022-10-18T03:31:13;8.88;;;6.62;;
47481;SDS011;33219;47.410;9.730;2022-10-18T03:33:40;13.03;;;6.45;;
47481;SDS011;33219;47.410;9.730;2022-10-18T03:36:08;11.03;;;6.67;;
47481;SDS011;33219;47.410;9.730;2022-10-18T03:38:36;9.53;;;4.47;;
47481;SDS011;33219;47.410;9.730;2022-10-18T03:41:04;9.43;;;5.50;;
47481;SDS011;33219;47.410;9.730;2022-10-18T03:43:32;11.38;;;6.17;;
47481;SDS011;33219;47.410;9.730;2022-10-18T03:45:59;9.80;;;5.15;;
47481;SDS011;33219;47.410;9.730;2022-10-18T03:48:27;10.70;;;5.08;;
47481;SDS011;33219;47.410;9.730;2022-10-18T03:50:54;8.35;;;5.10;;
47481;SDS011;33219;47.410;9.730;2022-10-18T03:53:22;7.95;;;6.03;;
47481;SDS011;33219;47.410;9.730;2022-10-18T03:55:50;8.15;;;5.70;;
47481;SDS011;33219;47.410;9.730;2022-10-18T03:58:18;9.68;;;6.00;;
47481;SDS011;33219;47.410;9.730;2022-10-18T04:00:50;7.90;;;5.92;;
47481;SDS011;33219;47.410;9.730;2022-10-18T04:03:19;12.93;;;5.75;;
47481;SDS011;33219;47.410;9.730;2022-10-18T04:05:47;7.42;;;5.22;;
47481;SDS011;33219;47.410;9.730;2022-10-18T04:08:16;10.25;;;5.55;;
47481;SDS011;33219;47.410;9.730;2022-10-18T04:10:44;9.90;;;5.33;;
47481;SDS011;33219;47.410;9.730;2022-10-18T04:13:12;8.40;;;5.10;;
47481;SDS011;33219;47.410;9.730;2022-10-18T04:15:40;10.32;;;5.75;;
47481;SDS011;33219;47.410;9.730;2022-10-18T04:18:08;7.70;;;5.65;;
47481;SDS011;33219;47.410;9.730;2022-10-18T04:20:36;10.25;;;5.70;;
47481;SDS011;33219;47.410;9.730;2022-10-18T04:23:03;10.28;;;6.42;;
47481;SDS011;33219;47.410;9.730;2022-10-18T04:25:31;10.03;;;5.55;;
47481;SDS011;33219;47.410;9.730;2022-10-18T04:27:59;11.22;;;5.08;;
47481;SDS011;33219;47.410;9.730;2022-10-18T04:30:26;9.85;;;5.65;;
47481;SDS011;33219;47.410;9.730;2022-10-18T04:32:54;9.90;;;5.10;;
47481;SDS011;33219;47.410;9.730;2022-10-18T04:35:21;9.03;;;5.83;;
47481;SDS011;33219;47.410;9.730;2022-10-18T04:37:50;10.63;;;5.53;;
47481;SDS011;33219;47.410;9.730;2022-10-18T04:40:18;9.23;;;4.95;;
47481;SDS011;33219;47.410;9.730;2022-10-18T04:42:46;8.08;;;5.67;;
47481;SDS011;33219;47.410;9.730;2022-10-18T04:45:14;9.20;;;5.35;;
47481;SDS011;33219;47.410;9.730;2022-10-18T04:47:41;9.43;;;4.33;;
47481;SDS011;33219;47.410;9.730;2022-10-18T04:50:09;9.38;;;4.00;;
47481;SDS011;33219;47.410;9.730;2022-10-18T04:52:36;7.23;;;3.57;;
47481;SDS011;33219;47.410;9.730;2022-10-18T04:55:04;9.28;;;4.72;;
47481;SDS011;33219;47.410;9.730;2022-10-18T04:57:32;10.43;;;5.10;;
47481;SDS011;33219;47.410;9.730;2022-10-18T04:59:59;11.68;;;5.25;;
47481;SDS011;33219;47.410;9.730;2022-10-18T05:02:27;8.30;;;5.42;;
47481;SDS011;33219;47.410;9.730;2022-10-18T05:04:54;14.23;;;5.92;;
47481;SDS011;33219;47.410;9.730;2022-10-18T05:07:22;9.20;;;5.20;;
47481;SDS011;33219;47.410;9.730;2022-10-18T05:09:50;9.50;;;5.47;;
47481;SDS011;33219;47.410;9.730;2022-10-18T05:12:17;8.60;;;5.42;;
47481;SDS011;33219;47.410;9.730;2022-10-18T05:14:45;9.78;;;5.62;;
47481;SDS011;33219;47.410;9.730;2022-10-18T05:17:13;10.03;;;5.50;;
47481;SDS011;33219;47.410;9.730;2022-10-18T05:19:46;10.05;;;5.53;;
47481;SDS011;33219;47.410;9.730;2022-10-18T05:22:10;11.18;;;5.75;;
47481;SDS011;33219;47.410;9.730;2022-10-18T05:24:37;11.18;;;5.45;;
47481;SDS011;33219;47.410;9.730;2022-10-18T05:27:08;9.23;;;5.65;;
47481;SDS011;33219;47.410;9.730;2022-10-18T05:29:38;12.00;;;5.58;;
47481;SDS011;33219;47.410;9.730;2022-10-18T05:32:09;8.88;;;5.78;;
47481;SDS011;33219;47.410;9.730;2022-10-18T05:34:59;11.12;;;6.05;;
47481;SDS011;33219;47.410;9.730;2022-10-18T05:53:22;12.00;;;6.97;;
47481;SDS011;33219;47.410;9.730;2022-10-18T06:10:54;8.65;;;5.42;;
47481;SDS011;33219;47.410;9.730;2022-10-18T06:13:22;11.43;;;5.90;;
47481;SDS011;33219;47.410;9.730;2022-10-18T06:15:56;9.70;;;6.03;;
47481;SDS011;33219;47.410;9.730;2022-10-18T06:18:30;14.85;;;7.28;;
47481;SDS011;33219;47.410;9.730;2022-10-18T06:21:06;10.28;;;5.78;;
47481;SDS011;33219;47.410;9.730;2022-10-18T06:23:37;11.13;;;6.33;;
47481;SDS011;33219;47.410;9.730;2022-10-18T06:26:06;13.75;;;6.92;;
47481;SDS011;33219;47.410;9.730;2022-10-18T06:32:02;20.57;;;10.58;;
47481;SDS011;33219;47.410;9.730;2022-10-18T06:34:42;19.85;;;8.73;;
47481;SDS011;33219;47.410;9.730;2022-10-18T06:43:41;10.23;;;4.90;;
47481;SDS011;33219;47.410;9.730;2022-10-18T06:49:18;8.70;;;4.45;;
47481;SDS011;33219;47.410;9.730;2022-10-18T06:51:54;8.03;;;4.35;;
47481;SDS011;33219;47.410;9.730;2022-10-18T06:54:30;7.92;;;3.85;;
47481;SDS011;33219;47.410;9.730;2022-10-18T06:57:13;9.08;;;3.35;;
47481;SDS011;33219;47.410;9.730;2022-10-18T06:59:47;6.30;;;3.27;;
47481;SDS011;33219;47.410;9.730;2022-10-18T07:02:22;6.85;;;4.00;;
47481;SDS011;33219;47.410;9.730;2022-10-18T07:04:55;8.08;;;3.62;;
47481;SDS011;33219;47.410;9.730;2022-10-18T07:07:32;7.20;;;3.47;;
47481;SDS011;33219;47.410;9.730;2022-10-18T07:10:12;5.22;;;2.92;;
47481;SDS011;33219;47.410;9.730;2022-10-18T07:13:11;10.50;;;3.10;;
47481;SDS011;33219;47.410;9.730;2022-10-18T07:15:58;5.78;;;2.90;;
47481;SDS011;33219;47.410;9.730;2022-10-18T07:18:38;5.35;;;2.70;;
47481;SDS011;33219;47.410;9.730;2022-10-18T07:21:36;13.10;;;6.13;;
47481;SDS011;33219;47.410;9.730;2022-10-18T07:32:33;12.68;;;4.90;;
47481;SDS011;33219;47.410;9.730;2022-10-18T07:35:07;9.63;;;5.20;;
47481;SDS011;33219;47.410;9.730;2022-10-18T07:37:55;10.00;;;5.33;;
47481;SDS011;33219;47.410;9.730;2022-10-18T07:44:02;11.70;;;5.28;;
47481;SDS011;33219;47.410;9.730;2022-10-18T07:50:41;8.58;;;4.78;;
47481;SDS011;33219;47.410;9.730;2022-10-18T07:53:30;9.28;;;4.42;;
47481;SDS011;33219;47.410;9.730;2022-10-18T08:02:49;10.25;;;4.92;;
47481;SDS011;33219;47.410;9.730;2022-10-18T08:17:59;12.95;;;4.90;;
47481;SDS011;33219;47.410;9.730;2022-10-18T08:21:11;11.45;;;4.67;;
47481;SDS011;33219;47.410;9.730;2022-10-18T08:24:10;15.38;;;4.90;;
47481;SDS011;33219;47.410;9.730;2022-10-18T08:26:44;9.50;;;4.87;;
47481;SDS011;33219;47.410;9.730;2022-10-18T08:29:27;11.35;;;5.30;;
47481;SDS011;33219;47.410;9.730;2022-10-18T08:32:18;12.35;;;5.00;;
47481;SDS011;33219;47.410;9.730;2022-10-18T08:47:18;11.12;;;5.33;;
47481;SDS011;33219;47.410;9.730;2022-10-18T08:50:20;7.85;;;4.17;;
47481;SDS011;33219;47.410;9.730;2022-10-18T08:55:59;8.83;;;4.22;;
47481;SDS011;33219;47.410;9.730;2022-10-18T08:58:36;12.53;;;4.12;;
47481;SDS011;33219;47.410;9.730;2022-10-18T09:01:35;6.90;;;3.90;;
47481;SDS011;33219;47.410;9.730;2022-10-18T09:31:00;5.78;;;3.87;;
47481;SDS011;33219;47.410;9.730;2022-10-18T09:37:17;7.78;;;3.67;;
47481;SDS011;33219;47.410;9.730;2022-10-18T09:48:50;6.00;;;3.22;;
47481;SDS011;33219;47.410;9.730;2022-10-18T09:51:46;13.65;;;4.50;;
47481;SDS011;33219;47.410;9.730;2022-10-18T09:54:33;7.55;;;3.27;;
47481;SDS011;33219;47.410;9.730;2022-10-18T09:57:14;6.40;;;2.92;;
47481;SDS011;33219;47.410;9.730;2022-10-18T09:59:47;5.08;;;3.22;;
47481;SDS011;33219;47.410;9.730;2022-10-18T10:02:21;5.80;;;3.05;;
47481;SDS011;33219;47.410;9.730;2022-10-18T10:04:54;5.05;;;3.15;;
47481;SDS011;33219;47.410;9.730;2022-10-18T10:07:24;7.62;;;3.65;;
47481;SDS011;33219;47.410;9.730;2022-10-18T10:09:58;6.17;;;3.62;;
47481;SDS011;33219;47.410;9.730;2022-10-18T10:12:38;7.00;;;3.30;;
47481;SDS011;33219;47.410;9.730;2022-10-18T10:17:59;6.20;;;3.65;;
47481;SDS011;33219;47.410;9.730;2022-10-18T10:20:55;8.35;;;4.12;;
47481;SDS011;33219;47.410;9.730;2022-10-18T10:23:38;7.97;;;3.42;;
47481;SDS011;33219;47.410;9.730;2022-10-18T10:26:35;8.00;;;4.10;;
47481;SDS011;33219;47.410;9.730;2022-10-18T10:32:49;8.03;;;4.50;;
47481;SDS011;33219;47.410;9.730;2022-10-18T10:36:14;9.68;;;4.40;;
47481;SDS011;33219;47.410;9.730;2022-10-18T10:38:30;8.28;;;3.35;;
47481;SDS011;33219;47.410;9.730;2022-10-18T10:43:59;7.65;;;3.70;;
47481;SDS011;33219;47.410;9.730;2022-10-18T10:46:53;11.05;;;3.65;;
47481;SDS011;33219;47.410;9.730;2022-10-18T10:49:26;8.38;;;3.90;;
47481;SDS011;33219;47.410;9.730;2022-10-18T10:52:21;7.50;;;3.72;;
47481;SDS011;33219;47.410;9.730;2022-10-18T10:55:13;6.62;;;3.62;;
47481;SDS011;33219;47.410;9.730;2022-10-18T10:57:51;6.58;;;3.60;;
47481;SDS011;33219;47.410;9.730;2022-10-18T11:39:18;7.12;;;4.15;;
47481;SDS011;33219;47.410;9.730;2022-10-18T11:42:02;7.28;;;4.42;;
47481;SDS011;33219;47.410;9.730;2022-10-18T11:44:43;9.58;;;4.65;;
47481;SDS011;33219;47.410;9.730;2022-10-18T11:50:04;7.60;;;4.20;;
47481;SDS011;33219;47.410;9.730;2022-10-18T12:03:19;7.53;;;4.12;;
47481;SDS011;33219;47.410;9.730;2022-10-18T12:05:52;7.08;;;3.90;;
47481;SDS011;33219;47.410;9.730;2022-10-18T12:11:21;8.43;;;3.98;;
47481;SDS011;33219;47.410;9.730;2022-10-18T12:13:56;6.55;;;3.70;;
47481;SDS011;33219;47.410;9.730;2022-10-18T12:16:38;6.42;;;3.52;;
47481;SDS011;33219;47.410;9.730;2022-10-18T12:19:25;8.93;;;3.60;;
47481;SDS011;33219;47.410;9.730;2022-10-18T12:22:13;6.42;;;3.33;;
47481;SDS011;33219;47.410;9.730;2022-10-18T12:24:44;5.17;;;3.25;;
47481;SDS011;33219;47.410;9.730;2022-10-18T12:27:12;6.22;;;3.30;;
47481;SDS011;33219;47.410;9.730;2022-10-18T12:29:52;6.95;;;3.87;;
47481;SDS011;33219;47.410;9.730;2022-10-18T12:32:26;8.63;;;4.05;;
47481;SDS011;33219;47.410;9.730;2022-10-18T12:34:57;7.08;;;3.58;;
47481;SDS011;33219;47.410;9.730;2022-10-18T12:40:40;4.25;;;3.30;;
47481;SDS011;33219;47.410;9.730;2022-10-18T12:43:49;8.15;;;3.37;;
47481;SDS011;33219;47.410;9.730;2022-10-18T12:45:54;6.70;;;3.60;;
47481;SDS011;33219;47.410;9.730;2022-10-18T12:48:35;6.08;;;3.52;;
47481;SDS011;33219;47.410;9.730;2022-10-18T12:51:12;10.20;;;4.10;;
47481;SDS011;33219;47.410;9.730;2022-10-18T12:53:56;7.65;;;3.60;;
47481;SDS011;33219;47.410;9.730;2022-10-18T13:09:38;6.45;;;3.98;;
47481;SDS011;33219;47.410;9.730;2022-10-18T13:17:33;7.20;;;4.25;;
47481;SDS011;33219;47.410;9.730;2022-10-18T13:20:19;8.30;;;3.98;;
47481;SDS011;33219;47.410;9.730;2022-10-18T13:25:32;7.10;;;3.80;;
47481;SDS011;33219;47.410;9.730;2022-10-18T13:34:16;6.83;;;3.67;;
47481;SDS011;33219;47.410;9.730;2022-10-18T13:37:04;6.55;;;3.70;;
47481;SDS011;33219;47.410;9.730;2022-10-18T13:39:34;8.33;;;3.80;;
47481;SDS011;33219;47.410;9.730;2022-10-18T13:44:46;7.12;;;3.85;;
47481;SDS011;33219;47.410;9.730;2022-10-18T13:47:14;6.33;;;3.65;;
47481;SDS011;33219;47.410;9.730;2022-10-18T13:50:05;6.62;;;3.85;;
47481;SDS011;33219;47.410;9.730;2022-10-18T13:55:24;5.17;;;3.70;;
47481;SDS011;33219;47.410;9.730;2022-10-18T13:58:10;10.82;;;4.20;;
47481;SDS011;33219;47.410;9.730;2022-10-18T14:04:21;9.15;;;3.83;;
47481;SDS011;33219;47.410;9.730;2022-10-18T14:06:52;8.40;;;4.33;;
47481;SDS011;33219;47.410;9.730;2022-10-18T14:09:23;8.10;;;3.58;;
47481;SDS011;33219;47.410;9.730;2022-10-18T14:11:58;7.30;;;3.98;;
47481;SDS011;33219;47.410;9.730;2022-10-18T14:14:32;8.23;;;3.62;;
47481;SDS011;33219;47.410;9.730;2022-10-18T14:17:28;7.80;;;3.85;;
47481;SDS011;33219;47.410;9.730;2022-10-18T14:20:12;8.50;;;3.77;;
47481;SDS011;33219;47.410;9.730;2022-10-18T14:22:53;12.33;;;4.22;;
47481;SDS011;33219;47.410;9.730;2022-10-18T14:25:35;6.62;;;3.90;;
47481;SDS011;33219;47.410;9.730;2022-10-18T14:28:14;7.83;;;3.60;;
47481;SDS011;33219;47.410;9.730;2022-10-18T14:30:56;8.85;;;4.30;;
47481;SDS011;33219;47.410;9.730;2022-10-18T14:33:42;8.05;;;3.72;;
47481;SDS011;33219;47.410;9.730;2022-10-18T14:41:21;6.05;;;3.77;;
47481;SDS011;33219;47.410;9.730;2022-10-18T14:43:51;6.90;;;3.67;;
47481;SDS011;33219;47.410;9.730;2022-10-18T14:48:57;10.53;;;3.67;;
47481;SDS011;33219;47.410;9.730;2022-10-18T14:51:27;7.53;;;3.87;;
47481;SDS011;33219;47.410;9.730;2022-10-18T14:53:59;6.20;;;3.87;;
47481;SDS011;33219;47.410;9.730;2022-10-18T14:56:28;7.67;;;3.72;;
47481;SDS011;33219;47.410;9.730;2022-10-18T14:58:59;7.62;;;3.83;;
47481;SDS011;33219;47.410;9.730;2022-10-18T15:01:28;9.75;;;3.98;;
47481;SDS011;33219;47.410;9.730;2022-10-18T15:03:58;8.60;;;4.55;;
47481;SDS011;33219;47.410;9.730;2022-10-18T15:06:28;8.03;;;3.90;;
47481;SDS011;33219;47.410;9.730;2022-10-18T15:08:57;10.68;;;4.70;;
47481;SDS011;33219;47.410;9.730;2022-10-18T15:11:28;12.10;;;4.62;;
47481;SDS011;33219;47.410;9.730;2022-10-18T15:13:58;7.25;;;4.05;;
47481;SDS011;33219;47.410;9.730;2022-10-18T15:16:33;8.65;;;4.15;;
47481;SDS011;33219;47.410;9.730;2022-10-18T15:19:06;12.50;;;4.47;;
47481;SDS011;33219;47.410;9.730;2022-10-18T15:24:36;10.55;;;3.67;;
47481;SDS011;33219;47.410;9.730;2022-10-18T15:27:18;10.98;;;4.80;;
47481;SDS011;33219;47.410;9.730;2022-10-18T15:29:42;7.28;;;3.87;;
47481;SDS011;33219;47.410;9.730;2022-10-18T15:32:23;8.65;;;3.83;;
47481;SDS011;33219;47.410;9.730;2022-10-18T15:34:52;9.65;;;3.98;;
47481;SDS011;33219;47.410;9.730;2022-10-18T15:37:36;8.00;;;4.00;;
47481;SDS011;33219;47.410;9.730;2022-10-18T15:40:15;10.08;;;3.98;;
47481;SDS011;33219;47.410;9.730;2022-10-18T15:42:44;7.87;;;4.37;;
47481;SDS011;33219;47.410;9.730;2022-10-18T15:50:38;10.98;;;4.08;;
47481;SDS011;33219;47.410;9.730;2022-10-18T15:58:42;7.12;;;3.85;;
47481;SDS011;33219;47.410;9.730;2022-10-18T16:03:45;8.40;;;4.00;;
47481;SDS011;33219;47.410;9.730;2022-10-18T16:06:14;7.45;;;4.08;;
47481;SDS011;33219;47.410;9.730;2022-10-18T16:08:43;7.15;;;4.10;;
47481;SDS011;33219;47.410;9.730;2022-10-18T16:11:18;8.00;;;3.67;;
47481;SDS011;33219;47.410;9.730;2022-10-18T16:13:43;7.35;;;3.67;;
47481;SDS011;33219;47.410;9.730;2022-10-18T16:16:14;6.85;;;3.80;;
47481;SDS011;33219;47.410;9.730;2022-10-18T16:18:49;10.58;;;4.33;;
47481;SDS011;33219;47.410;9.730;2022-10-18T16:21:18;7.05;;;3.90;;
47481;SDS011;33219;47.410;9.730;2022-10-18T16:23:54;7.37;;;3.70;;
47481;SDS011;33219;47.410;9.730;2022-10-18T16:26:22;8.93;;;3.55;;
47481;SDS011;33219;47.410;9.730;2022-10-18T16:28:50;11.20;;;4.33;;
47481;SDS011;33219;47.410;9.730;2022-10-18T16:31:20;13.22;;;4.10;;
47481;SDS011;33219;47.410;9.730;2022-10-18T16:33:49;6.87;;;4.08;;
47481;SDS011;33219;47.410;9.730;2022-10-18T16:36:22;7.28;;;3.83;;
47481;SDS011;33219;47.410;9.730;2022-10-18T16:38:51;8.03;;;3.72;;
47481;SDS011;33219;47.410;9.730;2022-10-18T16:41:20;10.08;;;4.00;;
47481;SDS011;33219;47.410;9.730;2022-10-18T16:43:48;6.97;;;4.00;;
47481;SDS011;33219;47.410;9.730;2022-10-18T16:46:17;8.18;;;4.55;;
47481;SDS011;33219;47.410;9.730;2022-10-18T16:48:47;8.45;;;4.33;;
47481;SDS011;33219;47.410;9.730;2022-10-18T16:51:15;8.98;;;3.90;;
47481;SDS011;33219;47.410;9.730;2022-10-18T16:53:43;7.67;;;3.95;;
47481;SDS011;33219;47.410;9.730;2022-10-18T16:56:14;5.53;;;3.40;;
47481;SDS011;33219;47.410;9.730;2022-10-18T16:58:50;10.15;;;4.28;;
47481;SDS011;33219;47.410;9.730;2022-10-18T17:01:19;11.48;;;3.92;;
47481;SDS011;33219;47.410;9.730;2022-10-18T17:03:47;7.72;;;4.15;;
47481;SDS011;33219;47.410;9.730;2022-10-18T17:06:18;11.63;;;4.00;;
47481;SDS011;33219;47.410;9.730;2022-10-18T17:08:47;8.70;;;3.87;;
47481;SDS011;33219;47.410;9.730;2022-10-18T17:11:16;7.45;;;4.20;;
47481;SDS011;33219;47.410;9.730;2022-10-18T17:13:44;10.30;;;3.85;;
47481;SDS011;33219;47.410;9.730;2022-10-18T17:16:35;6.53;;;3.87;;
47481;SDS011;33219;47.410;9.730;2022-10-18T17:18:51;7.95;;;3.83;;
47481;SDS011;33219;47.410;9.730;2022-10-18T17:21:20;10.03;;;4.50;;
47481;SDS011;33219;47.410;9.730;2022-10-18T17:23:48;7.12;;;3.60;;
47481;SDS011;33219;47.410;9.730;2022-10-18T17:26:17;6.83;;;3.30;;
47481;SDS011;33219;47.410;9.730;2022-10-18T17:28:50;7.45;;;3.70;;
47481;SDS011;33219;47.410;9.730;2022-10-18T17:31:19;10.93;;;3.80;;
47481;SDS011;33219;47.410;9.730;2022-10-18T17:33:47;6.70;;;3.42;;
47481;SDS011;33219;47.410;9.730;2022-10-18T17:36:15;10.23;;;3.80;;
47481;SDS011;33219;47.410;9.730;2022-10-18T17:38:43;9.98;;;4.03;;
47481;SDS011;33219;47.410;9.730;2022-10-18T17:41:13;9.38;;;3.55;;
47481;SDS011;33219;47.410;9.730;2022-10-18T17:43:40;13.08;;;3.60;;
47481;SDS011;33219;47.410;9.730;2022-10-18T17:46:10;5.65;;;3.30;;
47481;SDS011;33219;47.410;9.730;2022-10-18T17:48:39;8.20;;;3.80;;
47481;SDS011;33219;47.410;9.730;2022-10-18T17:51:13;7.62;;;4.10;;
47481;SDS011;33219;47.410;9.730;2022-10-18T17:53:37;8.68;;;3.70;;
47481;SDS011;33219;47.410;9.730;2022-10-18T17:56:06;10.63;;;3.92;;
47481;SDS011;33219;47.410;9.730;2022-10-18T17:58:34;7.08;;;3.55;;
47481;SDS011;33219;47.410;9.730;2022-10-18T18:03:42;14.50;;;3.75;;
47481;SDS011;33219;47.410;9.730;2022-10-18T18:06:22;8.23;;;3.25;;
47481;SDS011;33219;47.410;9.730;2022-10-18T18:08:47;7.97;;;3.25;;
47481;SDS011;33219;47.410;9.730;2022-10-18T18:11:15;7.35;;;3.70;;
47481;SDS011;33219;47.410;9.730;2022-10-18T18:13:44;8.90;;;3.58;;
47481;SDS011;33219;47.410;9.730;2022-10-18T18:16:13;9.15;;;4.42;;
47481;SDS011;33219;47.410;9.730;2022-10-18T18:18:47;11.40;;;4.58;;
47481;SDS011;33219;47.410;9.730;2022-10-18T18:21:16;8.93;;;4.28;;
47481;SDS011;33219;47.410;9.730;2022-10-18T18:23:45;11.48;;;4.72;;
47481;SDS011;33219;47.410;9.730;2022-10-18T18:26:13;9.38;;;5.00;;
47481;SDS011;33219;47.410;9.730;2022-10-18T18:28:41;9.65;;;4.80;;
47481;SDS011;33219;47.410;9.730;2022-10-18T18:31:12;8.00;;;4.00;;
47481;SDS011;33219;47.410;9.730;2022-10-18T18:33:42;11.45;;;4.08;;
47481;SDS011;33219;47.410;9.730;2022-10-18T18:36:10;9.73;;;4.20;;
47481;SDS011;33219;47.410;9.730;2022-10-18T18:38:39;9.50;;;3.65;;
47481;SDS011;33219;47.410;9.730;2022-10-18T18:41:14;12.40;;;3.90;;
47481;SDS011;33219;47.410;9.730;2022-10-18T18:43:44;9.58;;;3.85;;
47481;SDS011;33219;47.410;9.730;2022-10-18T18:46:13;7.65;;;3.40;;
47481;SDS011;33219;47.410;9.730;2022-10-18T18:48:43;8.55;;;3.22;;
47481;SDS011;33219;47.410;9.730;2022-10-18T18:51:11;11.73;;;3.10;;
47481;SDS011;33219;47.410;9.730;2022-10-18T18:53:41;7.42;;;3.42;;
47481;SDS011;33219;47.410;9.730;2022-10-18T18:56:12;10.82;;;4.08;;
47481;SDS011;33219;47.410;9.730;2022-10-18T18:58:43;6.67;;;3.40;;
47481;SDS011;33219;47.410;9.730;2022-10-18T19:01:19;7.50;;;3.25;;
47481;SDS011;33219;47.410;9.730;2022-10-18T19:03:53;6.22;;;3.50;;
47481;SDS011;33219;47.410;9.730;2022-10-18T19:06:29;4.92;;;3.15;;
47481;SDS011;33219;47.410;9.730;2022-10-18T19:09:03;5.90;;;3.50;;
47481;SDS011;33219;47.410;9.730;2022-10-18T19:11:33;6.67;;;3.50;;
47481;SDS011;33219;47.410;9.730;2022-10-18T19:14:04;6.00;;;3.27;;
47481;SDS011;33219;47.410;9.730;2022-10-18T19:16:34;5.80;;;2.95;;
47481;SDS011;33219;47.410;9.730;2022-10-18T19:19:16;13.15;;;3.52;;
47481;SDS011;33219;47.410;9.730;2022-10-18T19:21:47;6.47;;;3.58;;
47481;SDS011;33219;47.410;9.730;2022-10-18T19:24:17;7.92;;;3.47;;
47481;SDS011;33219;47.410;9.730;2022-10-18T19:26:47;8.03;;;3.92;;
47481;SDS011;33219;47.410;9.730;2022-10-18T19:29:20;6.58;;;3.27;;
47481;SDS011;33219;47.410;9.730;2022-10-18T19:31:53;8.80;;;3.75;;
47481;SDS011;33219;47.410;9.730;2022-10-18T19:34:22;8.80;;;3.40;;
47481;SDS011;33219;47.410;9.730;2022-10-18T19:36:53;7.60;;;3.52;;
47481;SDS011;33219;47.410;9.730;2022-10-18T19:39:29;11.25;;;3.62;;
47481;SDS011;33219;47.410;9.730;2022-10-18T19:41:59;9.48;;;3.50;;
47481;SDS011;33219;47.410;9.730;2022-10-18T19:44:30;9.48;;;3.47;;
47481;SDS011;33219;47.410;9.730;2022-10-18T19:46:59;10.08;;;3.62;;
47481;SDS011;33219;47.410;9.730;2022-10-18T19:49:30;8.98;;;3.92;;
47481;SDS011;33219;47.410;9.730;2022-10-18T19:51:58;9.83;;;3.58;;
47481;SDS011;33219;47.410;9.730;2022-10-18T19:54:26;9.90;;;3.67;;
47481;SDS011;33219;47.410;9.730;2022-10-18T19:56:54;8.58;;;3.00;;
47481;SDS011;33219;47.410;9.730;2022-10-18T19:59:22;12.78;;;3.60;;
47481;SDS011;33219;47.410;9.730;2022-10-18T20:01:50;6.60;;;3.33;;